sensor_id;sensor_type;location;lat;lon;timestamp;pressure;altitude;pressure_sealevel;temperature;humidity
24160;BME280;62385;41.594;23.808;2023-02-12T00:00:39;96401.09;;;-3.84;60.35
24160;BME280;62385;41.594;23.808;2023-02-12T00:03:05;96405.63;;;-3.89;60.53
24160;BME280;62385;41.594;23.808;2023-02-12T00:05:31;96402.19;;;-3.89;60.97
24160;BME280;62385;41.594;23.808;2023-02-12T00:07:57;96407.50;;;-3.92;60.80
24160;BME280;62385;41.594;23.808;2023-02-12T00:10:23;96401.19;;;-4.07;61.80
24160;BME280;62385;41.594;23.808;2023-02-12T00:12:50;96397.38;;;-4.20;62.17
24160;BME280;62385;41.594;23.808;2023-02-12T00:15:17;96391.53;;;-4.03;61.84
24160;BME280;62385;41.594;23.808;2023-02-12T00:17:43;96387.66;;;-3.93;61.35
24160;BME280;62385;41.594;23.808;2023-02-12T00:20:09;96388.75;;;-3.99;61.00
24160;BME280;62385;41.594;23.808;2023-02-12T00:22:34;96387.09;;;-3.80;60.59
24160;BME280;62385;41.594;23.808;2023-02-12T00:25:00;96386.63;;;-3.89;60.89
24160;BME280;62385;41.594;23.808;2023-02-12T00:27:25;96385.31;;;-3.99;61.00
24160;BME280;62385;41.594;23.808;2023-02-12T00:29:51;96393.09;;;-3.99;61.39
24160;BME280;62385;41.594;23.808;2023-02-12T00:32:17;96386.41;;;-4.05;61.85
24160;BME280;62385;41.594;23.808;2023-02-12T00:34:47;96383.56;;;-3.77;60.38
24160;BME280;62385;41.594;23.808;2023-02-12T00:37:14;96384.53;;;-3.59;59.53
24160;BME280;62385;41.594;23.808;2023-02-12T00:39:40;96369.88;;;-3.40;59.80
24160;BME280;62385;41.594;23.808;2023-02-12T00:42:07;96381.22;;;-3.43;59.53
24160;BME280;62385;41.594;23.808;2023-02-12T00:44:32;96376.88;;;-3.42;59.58
24160;BME280;62385;41.594;23.808;2023-02-12T00:46:58;96375.09;;;-3.40;59.82
24160;BME280;62385;41.594;23.808;2023-02-12T00:49:27;96368.38;;;-3.26;59.81
24160;BME280;62385;41.594;23.808;2023-02-12T00:51:53;96371.97;;;-3.28;59.75
24160;BME280;62385;41.594;23.808;2023-02-12T00:54:19;96378.44;;;-3.38;60.38
24160;BME280;62385;41.594;23.808;2023-02-12T00:56:46;96367.47;;;-3.45;60.11
24160;BME280;62385;41.594;23.808;2023-02-12T00:59:12;96376.53;;;-3.14;59.72
24160;BME280;62385;41.594;23.808;2023-02-12T01:01:38;96368.84;;;-2.97;59.35
24160;BME280;62385;41.594;23.808;2023-02-12T01:04:03;96370.41;;;-2.93;59.40
24160;BME280;62385;41.594;23.808;2023-02-12T01:06:29;96356.72;;;-2.97;60.43
24160;BME280;62385;41.594;23.808;2023-02-12T01:08:54;96368.00;;;-2.77;61.19
24160;BME280;62385;41.594;23.808;2023-02-12T01:11:22;96357.06;;;-2.86;61.90
24160;BME280;62385;41.594;23.808;2023-02-12T01:13:48;96375.53;;;-2.92;62.31
24160;BME280;62385;41.594;23.808;2023-02-12T01:18:42;96359.19;;;-3.14;61.41
24160;BME280;62385;41.594;23.808;2023-02-12T01:21:15;96354.34;;;-3.21;61.22
24160;BME280;62385;41.594;23.808;2023-02-12T01:23:41;96358.47;;;-2.97;61.17
24160;BME280;62385;41.594;23.808;2023-02-12T01:26:09;96344.16;;;-2.87;60.46
24160;BME280;62385;41.594;23.808;2023-02-12T01:28:37;96346.91;;;-2.71;59.78
24160;BME280;62385;41.594;23.808;2023-02-12T01:31:17;96328.78;;;-2.73;61.01
24160;BME280;62385;41.594;23.808;2023-02-12T01:33:46;96320.88;;;-2.70;61.08
24160;BME280;62385;41.594;23.808;2023-02-12T01:36:12;96323.78;;;-2.96;61.92
24160;BME280;62385;41.594;23.808;2023-02-12T01:38:39;96317.59;;;-2.94;61.41
24160;BME280;62385;41.594;23.808;2023-02-12T01:41:11;96318.59;;;-2.96;61.05
24160;BME280;62385;41.594;23.808;2023-02-12T01:43:38;96321.81;;;-2.72;60.16
24160;BME280;62385;41.594;23.808;2023-02-12T01:46:05;96321.91;;;-2.74;60.73
24160;BME280;62385;41.594;23.808;2023-02-12T01:48:48;96320.28;;;-2.76;60.69
24160;BME280;62385;41.594;23.808;2023-02-12T01:51:18;96320.78;;;-2.50;60.07
24160;BME280;62385;41.594;23.808;2023-02-12T01:53:50;96313.81;;;-2.49;59.61
24160;BME280;62385;41.594;23.808;2023-02-12T01:56:17;96310.66;;;-2.37;59.12
24160;BME280;62385;41.594;23.808;2023-02-12T01:58:43;96313.38;;;-2.40;59.13
24160;BME280;62385;41.594;23.808;2023-02-12T02:01:20;96303.78;;;-2.57;59.90
24160;BME280;62385;41.594;23.808;2023-02-12T02:03:49;96311.34;;;-2.52;59.63
24160;BME280;62385;41.594;23.808;2023-02-12T02:06:19;96304.91;;;-2.62;59.93
24160;BME280;62385;41.594;23.808;2023-02-12T02:08:47;96312.75;;;-3.01;61.49
24160;BME280;62385;41.594;23.808;2023-02-12T02:11:13;96306.09;;;-2.88;61.03
24160;BME280;62385;41.594;23.808;2023-02-12T02:13:59;96302.38;;;-3.01;61.37
24160;BME280;62385;41.594;23.808;2023-02-12T02:16:52;96306.31;;;-2.93;60.84
24160;BME280;62385;41.594;23.808;2023-02-12T02:22:57;96307.91;;;-3.09;62.65
24160;BME280;62385;41.594;23.808;2023-02-12T02:28:02;96297.66;;;-3.12;63.67
24160;BME280;62385;41.594;23.808;2023-02-12T02:33:57;96307.59;;;-3.81;63.31
24160;BME280;62385;41.594;23.808;2023-02-12T02:36:39;96306.09;;;-4.06;63.43
24160;BME280;62385;41.594;23.808;2023-02-12T02:39:40;96293.50;;;-4.15;63.67
24160;BME280;62385;41.594;23.808;2023-02-12T02:44:59;96300.75;;;-4.45;64.50
24160;BME280;62385;41.594;23.808;2023-02-12T02:47:55;96300.59;;;-4.41;63.54
24160;BME280;62385;41.594;23.808;2023-02-12T02:50:24;96298.34;;;-4.28;63.78
24160;BME280;62385;41.594;23.808;2023-02-12T02:52:55;96300.94;;;-4.28;63.46
24160;BME280;62385;41.594;23.808;2023-02-12T02:55:28;96296.66;;;-4.29;63.61
24160;BME280;62385;41.594;23.808;2023-02-12T02:57:56;96306.94;;;-4.06;62.86
24160;BME280;62385;41.594;23.808;2023-02-12T03:00:39;96314.09;;;-3.70;61.46
24160;BME280;62385;41.594;23.808;2023-02-12T03:03:31;96321.19;;;-4.16;62.28
24160;BME280;62385;41.594;23.808;2023-02-12T03:06:03;96321.84;;;-4.54;63.65
24160;BME280;62385;41.594;23.808;2023-02-12T03:08:38;96318.69;;;-4.39;63.71
24160;BME280;62385;41.594;23.808;2023-02-12T03:11:23;96315.06;;;-4.35;63.72
24160;BME280;62385;41.594;23.808;2023-02-12T03:14:02;96313.59;;;-4.42;63.00
24160;BME280;62385;41.594;23.808;2023-02-12T03:16:33;96313.06;;;-4.29;62.73
24160;BME280;62385;41.594;23.808;2023-02-12T03:19:11;96311.53;;;-4.78;64.08
24160;BME280;62385;41.594;23.808;2023-02-12T03:21:49;96320.50;;;-4.86;64.10
24160;BME280;62385;41.594;23.808;2023-02-12T03:27:08;96316.94;;;-3.77;61.39
24160;BME280;62385;41.594;23.808;2023-02-12T03:29:36;96307.84;;;-4.07;61.73
24160;BME280;62385;41.594;23.808;2023-02-12T03:40:19;96307.28;;;-5.02;64.31
24160;BME280;62385;41.594;23.808;2023-02-12T03:45:28;96305.53;;;-4.56;63.24
24160;BME280;62385;41.594;23.808;2023-02-12T03:48:05;96300.19;;;-4.52;63.33
24160;BME280;62385;41.594;23.808;2023-02-12T03:53:06;96304.56;;;-4.32;62.65
24160;BME280;62385;41.594;23.808;2023-02-12T03:55:35;96294.41;;;-4.16;62.67
24160;BME280;62385;41.594;23.808;2023-02-12T03:58:02;96302.19;;;-4.16;62.53
24160;BME280;62385;41.594;23.808;2023-02-12T04:00:30;96305.63;;;-4.38;63.33
24160;BME280;62385;41.594;23.808;2023-02-12T04:02:56;96300.72;;;-4.44;63.04
24160;BME280;62385;41.594;23.808;2023-02-12T04:05:26;96285.41;;;-4.50;63.35
24160;BME280;62385;41.594;23.808;2023-02-12T04:07:54;96284.06;;;-4.38;63.61
24160;BME280;62385;41.594;23.808;2023-02-12T04:10:30;96279.53;;;-4.33;63.31
24160;BME280;62385;41.594;23.808;2023-02-12T04:18:28;96274.63;;;-3.77;62.36
24160;BME280;62385;41.594;23.808;2023-02-12T04:21:17;96263.91;;;-3.90;62.09
24160;BME280;62385;41.594;23.808;2023-02-12T04:23:49;96263.09;;;-3.72;62.17
24160;BME280;62385;41.594;23.808;2023-02-12T04:32:15;96269.78;;;-3.27;61.22
24160;BME280;62385;41.594;23.808;2023-02-12T04:35:12;96274.69;;;-3.40;63.37
24160;BME280;62385;41.594;23.808;2023-02-12T04:40:16;96274.84;;;-3.24;64.67
24160;BME280;62385;41.594;23.808;2023-02-12T04:42:44;96269.75;;;-3.46;65.49
24160;BME280;62385;41.594;23.808;2023-02-12T04:45:11;96277.41;;;-3.43;65.68
24160;BME280;62385;41.594;23.808;2023-02-12T04:47:39;96282.88;;;-3.49;65.22
24160;BME280;62385;41.594;23.808;2023-02-12T04:50:07;96274.75;;;-3.41;64.69
24160;BME280;62385;41.594;23.808;2023-02-12T04:52:33;96269.66;;;-3.24;64.36
24160;BME280;62385;41.594;23.808;2023-02-12T04:54:58;96265.03;;;-3.17;64.60
24160;BME280;62385;41.594;23.808;2023-02-12T04:57:24;96255.88;;;-3.45;65.85
24160;BME280;62385;41.594;23.808;2023-02-12T04:59:50;96262.22;;;-3.52;66.00
24160;BME280;62385;41.594;23.808;2023-02-12T05:02:16;96259.03;;;-3.57;66.95
24160;BME280;62385;41.594;23.808;2023-02-12T05:04:42;96259.72;;;-3.53;66.01
24160;BME280;62385;41.594;23.808;2023-02-12T05:07:07;96257.03;;;-3.52;64.96
24160;BME280;62385;41.594;23.808;2023-02-12T05:09:33;96274.09;;;-3.46;64.21
24160;BME280;62385;41.594;23.808;2023-02-12T05:11:58;96284.91;;;-3.16;64.96
24160;BME280;62385;41.594;23.808;2023-02-12T05:14:24;96291.81;;;-3.36;64.97
24160;BME280;62385;41.594;23.808;2023-02-12T05:16:50;96287.09;;;-3.46;66.39
24160;BME280;62385;41.594;23.808;2023-02-12T05:19:16;96294.13;;;-3.48;66.26
24160;BME280;62385;41.594;23.808;2023-02-12T05:21:42;96297.25;;;-3.60;66.66
24160;BME280;62385;41.594;23.808;2023-02-12T05:24:08;96309.94;;;-3.54;66.21
24160;BME280;62385;41.594;23.808;2023-02-12T05:26:34;96299.09;;;-3.44;66.13
24160;BME280;62385;41.594;23.808;2023-02-12T05:29:00;96302.25;;;-3.37;66.08
24160;BME280;62385;41.594;23.808;2023-02-12T05:31:25;96295.25;;;-3.55;66.61
24160;BME280;62385;41.594;23.808;2023-02-12T05:33:51;96313.84;;;-3.64;65.70
24160;BME280;62385;41.594;23.808;2023-02-12T05:36:21;96308.00;;;-3.69;66.04
24160;BME280;62385;41.594;23.808;2023-02-12T05:38:47;96306.31;;;-3.70;64.98
24160;BME280;62385;41.594;23.808;2023-02-12T05:41:17;96312.97;;;-3.45;64.25
24160;BME280;62385;41.594;23.808;2023-02-12T05:43:44;96314.44;;;-3.19;64.16
24160;BME280;62385;41.594;23.808;2023-02-12T05:46:10;96316.75;;;-3.32;64.82
24160;BME280;62385;41.594;23.808;2023-02-12T05:48:36;96317.53;;;-3.50;65.66
24160;BME280;62385;41.594;23.808;2023-02-12T05:51:11;96316.84;;;-3.35;65.45
24160;BME280;62385;41.594;23.808;2023-02-12T05:53:38;96319.59;;;-2.99;65.07
24160;BME280;62385;41.594;23.808;2023-02-12T05:56:19;96323.09;;;-3.00;65.13
24160;BME280;62385;41.594;23.808;2023-02-12T05:58:50;96314.94;;;-3.11;65.86
24160;BME280;62385;41.594;23.808;2023-02-12T06:01:21;96313.94;;;-2.90;64.95
24160;BME280;62385;41.594;23.808;2023-02-12T06:03:47;96319.63;;;-2.82;64.66
24160;BME280;62385;41.594;23.808;2023-02-12T06:06:12;96308.28;;;-2.79;64.88
24160;BME280;62385;41.594;23.808;2023-02-12T06:08:39;96311.91;;;-3.02;64.54
24160;BME280;62385;41.594;23.808;2023-02-12T06:11:07;96296.91;;;-2.76;64.07
24160;BME280;62385;41.594;23.808;2023-02-12T06:13:34;96301.53;;;-2.46;62.25
24160;BME280;62385;41.594;23.808;2023-02-12T06:16:00;96308.59;;;-2.30;62.49
24160;BME280;62385;41.594;23.808;2023-02-12T06:18:26;96311.28;;;-2.32;62.65
24160;BME280;62385;41.594;23.808;2023-02-12T06:20:52;96307.34;;;-2.05;62.08
24160;BME280;62385;41.594;23.808;2023-02-12T06:23:22;96316.63;;;-2.18;62.80
24160;BME280;62385;41.594;23.808;2023-02-12T06:25:49;96322.53;;;-2.14;63.09
24160;BME280;62385;41.594;23.808;2023-02-12T06:28:16;96328.66;;;-2.15;64.89
24160;BME280;62385;41.594;23.808;2023-02-12T06:30:42;96326.41;;;-1.87;64.24
24160;BME280;62385;41.594;23.808;2023-02-12T06:33:26;96323.50;;;-1.81;63.47
24160;BME280;62385;41.594;23.808;2023-02-12T06:35:53;96334.25;;;-2.06;63.75
24160;BME280;62385;41.594;23.808;2023-02-12T06:38:19;96347.53;;;-2.29;65.25
24160;BME280;62385;41.594;23.808;2023-02-12T06:40:44;96338.81;;;-2.28;65.70
24160;BME280;62385;41.594;23.808;2023-02-12T06:43:10;96346.84;;;-2.33;66.01
24160;BME280;62385;41.594;23.808;2023-02-12T06:45:36;96356.09;;;-2.27;65.37
24160;BME280;62385;41.594;23.808;2023-02-12T06:48:02;96344.22;;;-2.33;66.02
24160;BME280;62385;41.594;23.808;2023-02-12T06:50:28;96355.38;;;-2.12;65.34
24160;BME280;62385;41.594;23.808;2023-02-12T06:52:54;96350.81;;;-1.90;64.28
24160;BME280;62385;41.594;23.808;2023-02-12T06:55:20;96358.63;;;-1.72;64.38
24160;BME280;62385;41.594;23.808;2023-02-12T06:57:45;96366.41;;;-1.90;64.89
24160;BME280;62385;41.594;23.808;2023-02-12T07:00:12;96357.94;;;-1.76;64.75
24160;BME280;62385;41.594;23.808;2023-02-12T07:02:37;96364.69;;;-1.55;63.74
24160;BME280;62385;41.594;23.808;2023-02-12T07:05:03;96374.13;;;-2.05;63.92
24160;BME280;62385;41.594;23.808;2023-02-12T07:07:29;96374.81;;;-2.02;64.44
24160;BME280;62385;41.594;23.808;2023-02-12T07:09:54;96379.41;;;-1.90;64.38
24160;BME280;62385;41.594;23.808;2023-02-12T07:12:20;96371.97;;;-2.33;65.14
24160;BME280;62385;41.594;23.808;2023-02-12T07:14:45;96385.81;;;-2.14;65.21
24160;BME280;62385;41.594;23.808;2023-02-12T07:17:11;96382.38;;;-1.78;63.59
24160;BME280;62385;41.594;23.808;2023-02-12T07:19:36;96382.06;;;-2.08;64.93
24160;BME280;62385;41.594;23.808;2023-02-12T07:22:02;96366.47;;;-1.55;63.25
24160;BME280;62385;41.594;23.808;2023-02-12T07:24:28;96372.19;;;-1.49;63.80
24160;BME280;62385;41.594;23.808;2023-02-12T07:26:53;96367.53;;;-1.59;64.67
24160;BME280;62385;41.594;23.808;2023-02-12T07:29:19;96366.84;;;-1.63;64.92
24160;BME280;62385;41.594;23.808;2023-02-12T07:31:44;96359.63;;;-1.41;63.72
24160;BME280;62385;41.594;23.808;2023-02-12T07:34:10;96357.19;;;-1.44;64.24
24160;BME280;62385;41.594;23.808;2023-02-12T07:36:36;96349.94;;;-0.71;62.19
24160;BME280;62385;41.594;23.808;2023-02-12T07:39:02;96354.31;;;-1.05;63.31
24160;BME280;62385;41.594;23.808;2023-02-12T07:41:30;96352.19;;;-0.81;62.82
24160;BME280;62385;41.594;23.808;2023-02-12T07:44:09;96358.00;;;-0.76;63.21
24160;BME280;62385;41.594;23.808;2023-02-12T07:46:44;96351.13;;;-0.94;64.04
24160;BME280;62385;41.594;23.808;2023-02-12T07:49:16;96364.38;;;-0.81;64.14
24160;BME280;62385;41.594;23.808;2023-02-12T07:51:42;96370.06;;;-0.90;64.60
24160;BME280;62385;41.594;23.808;2023-02-12T07:54:09;96371.59;;;-0.86;63.69
24160;BME280;62385;41.594;23.808;2023-02-12T07:56:37;96375.66;;;-0.65;62.73
24160;BME280;62385;41.594;23.808;2023-02-12T07:59:05;96357.97;;;-0.43;60.73
24160;BME280;62385;41.594;23.808;2023-02-12T08:01:33;96366.94;;;-0.33;60.65
24160;BME280;62385;41.594;23.808;2023-02-12T08:04:04;96358.88;;;-0.44;60.39
24160;BME280;62385;41.594;23.808;2023-02-12T08:06:32;96361.00;;;-0.35;60.44
24160;BME280;62385;41.594;23.808;2023-02-12T08:09:00;96364.44;;;-0.34;59.60
24160;BME280;62385;41.594;23.808;2023-02-12T08:11:28;96370.16;;;-0.28;59.92
24160;BME280;62385;41.594;23.808;2023-02-12T08:13:55;96370.66;;;-0.37;60.24
24160;BME280;62385;41.594;23.808;2023-02-12T08:16:22;96371.19;;;-0.30;59.69
24160;BME280;62385;41.594;23.808;2023-02-12T08:18:49;96374.72;;;-0.16;59.31
24160;BME280;62385;41.594;23.808;2023-02-12T08:21:17;96361.38;;;0.05;57.94
24160;BME280;62385;41.594;23.808;2023-02-12T08:23:44;96378.31;;;-0.03;58.29
24160;BME280;62385;41.594;23.808;2023-02-12T08:26:30;96370.69;;;-0.06;58.50
24160;BME280;62385;41.594;23.808;2023-02-12T08:29:06;96365.66;;;0.21;57.91
24160;BME280;62385;41.594;23.808;2023-02-12T08:31:37;96360.16;;;0.41;57.18
24160;BME280;62385;41.594;23.808;2023-02-12T08:34:05;96355.72;;;0.28;57.20
24160;BME280;62385;41.594;23.808;2023-02-12T08:36:39;96361.69;;;0.45;57.46
24160;BME280;62385;41.594;23.808;2023-02-12T08:39:16;96353.78;;;0.61;57.10
24160;BME280;62385;41.594;23.808;2023-02-12T08:42:12;96360.88;;;0.59;56.32
24160;BME280;62385;41.594;23.808;2023-02-12T08:47:32;96353.03;;;1.03;55.30
24160;BME280;62385;41.594;23.808;2023-02-12T08:50:01;96359.66;;;1.09;54.99
24160;BME280;62385;41.594;23.808;2023-02-12T08:52:30;96360.22;;;1.14;54.96
24160;BME280;62385;41.594;23.808;2023-02-12T08:54:55;96359.19;;;1.30;54.52
24160;BME280;62385;41.594;23.808;2023-02-12T08:57:21;96360.59;;;1.64;53.01
24160;BME280;62385;41.594;23.808;2023-02-12T08:59:47;96356.00;;;1.68;53.38
24160;BME280;62385;41.594;23.808;2023-02-12T09:02:14;96365.56;;;1.96;52.79
24160;BME280;62385;41.594;23.808;2023-02-12T09:04:40;96367.47;;;1.79;53.23
24160;BME280;62385;41.594;23.808;2023-02-12T09:07:05;96361.38;;;2.20;52.59
24160;BME280;62385;41.594;23.808;2023-02-12T09:09:32;96366.94;;;2.42;52.48
24160;BME280;62385;41.594;23.808;2023-02-12T09:11:57;96367.63;;;1.91;52.28
24160;BME280;62385;41.594;23.808;2023-02-12T09:14:23;96367.34;;;1.95;52.11
24160;BME280;62385;41.594;23.808;2023-02-12T09:16:49;96366.13;;;2.01;50.90
24160;BME280;62385;41.594;23.808;2023-02-12T09:19:17;96370.44;;;1.88;49.94
24160;BME280;62385;41.594;23.808;2023-02-12T09:21:43;96378.22;;;1.75;49.36
24160;BME280;62385;41.594;23.808;2023-02-12T09:24:08;96380.84;;;1.75;48.98
24160;BME280;62385;41.594;23.808;2023-02-12T09:26:34;96365.13;;;2.16;47.63
24160;BME280;62385;41.594;23.808;2023-02-12T09:29:01;96367.66;;;2.17;48.44
24160;BME280;62385;41.594;23.808;2023-02-12T09:31:28;96366.56;;;2.73;46.24
24160;BME280;62385;41.594;23.808;2023-02-12T09:33:59;96368.81;;;2.79;46.26
24160;BME280;62385;41.594;23.808;2023-02-12T09:36:25;96358.66;;;3.00;45.42
24160;BME280;62385;41.594;23.808;2023-02-12T09:38:51;96351.63;;;3.51;44.08
24160;BME280;62385;41.594;23.808;2023-02-12T09:41:33;96367.44;;;3.88;43.87
24160;BME280;62385;41.594;23.808;2023-02-12T09:49:54;96353.22;;;3.90;41.25
24160;BME280;62385;41.594;23.808;2023-02-12T09:52:25;96353.13;;;4.28;41.20
24160;BME280;62385;41.594;23.808;2023-02-12T09:54:52;96351.03;;;4.44;40.09
24160;BME280;62385;41.594;23.808;2023-02-12T09:57:29;96353.44;;;4.47;40.50
24160;BME280;62385;41.594;23.808;2023-02-12T10:00:17;96347.63;;;4.90;40.28
24160;BME280;62385;41.594;23.808;2023-02-12T10:02:49;96341.56;;;4.65;39.48
24160;BME280;62385;41.594;23.808;2023-02-12T10:05:23;96344.84;;;4.45;39.79
24160;BME280;62385;41.594;23.808;2023-02-12T10:13:35;96332.97;;;4.63;39.44
24160;BME280;62385;41.594;23.808;2023-02-12T10:16:36;96334.41;;;5.13;39.36
24160;BME280;62385;41.594;23.808;2023-02-12T10:20:14;96323.78;;;5.15;38.14
24160;BME280;62385;41.594;23.808;2023-02-12T10:27:59;96316.72;;;5.27;37.94
24160;BME280;62385;41.594;23.808;2023-02-12T10:33:08;96313.13;;;5.39;37.68
24160;BME280;62385;41.594;23.808;2023-02-12T10:35:43;96315.88;;;5.15;38.34
24160;BME280;62385;41.594;23.808;2023-02-12T10:38:20;96311.28;;;4.49;40.79
24160;BME280;62385;41.594;23.808;2023-02-12T10:40:48;96307.38;;;5.23;39.67
24160;BME280;62385;41.594;23.808;2023-02-12T10:43:14;96316.13;;;5.12;38.02
24160;BME280;62385;41.594;23.808;2023-02-12T10:45:42;96302.47;;;5.18;38.51
24160;BME280;62385;41.594;23.808;2023-02-12T10:50:41;96307.75;;;5.40;38.91
24160;BME280;62385;41.594;23.808;2023-02-12T10:53:16;96301.78;;;5.49;39.14
24160;BME280;62385;41.594;23.808;2023-02-12T10:55:43;96306.56;;;5.33;39.07
24160;BME280;62385;41.594;23.808;2023-02-12T10:58:18;96299.84;;;5.74;38.73
24160;BME280;62385;41.594;23.808;2023-02-12T11:00:45;96293.16;;;5.92;38.39
24160;BME280;62385;41.594;23.808;2023-02-12T11:05:40;96295.94;;;6.22;37.39
24160;BME280;62385;41.594;23.808;2023-02-12T11:08:10;96298.72;;;6.21;36.55
24160;BME280;62385;41.594;23.808;2023-02-12T11:10:51;96295.94;;;6.33;36.38
24160;BME280;62385;41.594;23.808;2023-02-12T11:13:25;96300.22;;;5.58;39.22
24160;BME280;62385;41.594;23.808;2023-02-12T11:15:53;96290.88;;;6.30;37.39
24160;BME280;62385;41.594;23.808;2023-02-12T11:18:27;96288.41;;;6.29;37.77
24160;BME280;62385;41.594;23.808;2023-02-12T11:20:56;96289.50;;;6.47;37.65
24160;BME280;62385;41.594;23.808;2023-02-12T11:23:24;96290.59;;;6.44;37.99
24160;BME280;62385;41.594;23.808;2023-02-12T11:25:59;96288.38;;;6.61;37.68
24160;BME280;62385;41.594;23.808;2023-02-12T11:28:27;96283.16;;;6.49;36.46
24160;BME280;62385;41.594;23.808;2023-02-12T11:31:02;96281.13;;;6.94;36.35
24160;BME280;62385;41.594;23.808;2023-02-12T11:33:31;96279.44;;;6.73;36.34
24160;BME280;62385;41.594;23.808;2023-02-12T11:38:31;96276.09;;;7.12;35.95
24160;BME280;62385;41.594;23.808;2023-02-12T11:41:01;96262.63;;;7.15;35.66
24160;BME280;62385;41.594;23.808;2023-02-12T11:43:28;96267.00;;;7.05;35.13
24160;BME280;62385;41.594;23.808;2023-02-12T11:45:56;96262.41;;;7.58;35.11
24160;BME280;62385;41.594;23.808;2023-02-12T11:48:36;96260.47;;;7.30;35.76
24160;BME280;62385;41.594;23.808;2023-02-12T11:51:06;96255.41;;;7.48;35.84
24160;BME280;62385;41.594;23.808;2023-02-12T11:53:36;96259.59;;;7.50;35.90
24160;BME280;62385;41.594;23.808;2023-02-12T11:56:08;96253.66;;;7.67;35.59
24160;BME280;62385;41.594;23.808;2023-02-12T11:58:34;96261.88;;;7.64;35.96
24160;BME280;62385;41.594;23.808;2023-02-12T12:04:07;96258.44;;;7.73;34.98
24160;BME280;62385;41.594;23.808;2023-02-12T12:06:48;96251.19;;;8.34;33.99
24160;BME280;62385;41.594;23.808;2023-02-12T12:09:24;96261.59;;;7.67;35.09
24160;BME280;62385;41.594;23.808;2023-02-12T12:14:38;96249.34;;;7.66;35.24
24160;BME280;62385;41.594;23.808;2023-02-12T12:17:39;96242.63;;;8.02;35.81
24160;BME280;62385;41.594;23.808;2023-02-12T12:20:28;96251.16;;;8.15;35.40
24160;BME280;62385;41.594;23.808;2023-02-12T12:23:07;96241.69;;;8.22;36.02
24160;BME280;62385;41.594;23.808;2023-02-12T12:25:44;96256.50;;;7.85;35.90
24160;BME280;62385;41.594;23.808;2023-02-12T12:49:45;96249.78;;;7.71;37.25
24160;BME280;62385;41.594;23.808;2023-02-12T12:52:28;96254.00;;;7.83;37.81
24160;BME280;62385;41.594;23.808;2023-02-12T12:55:26;96262.81;;;8.13;36.61
24160;BME280;62385;41.594;23.808;2023-02-12T13:01:30;96272.38;;;8.34;35.41
24160;BME280;62385;41.594;23.808;2023-02-12T13:04:18;96269.16;;;7.91;35.92
24160;BME280;62385;41.594;23.808;2023-02-12T13:06:57;96269.84;;;8.62;35.44
24160;BME280;62385;41.594;23.808;2023-02-12T13:09:35;96274.28;;;8.32;35.24
24160;BME280;62385;41.594;23.808;2023-02-12T13:17:43;96276.16;;;8.61;34.73
24160;BME280;62385;41.594;23.808;2023-02-12T13:23:28;96276.88;;;8.13;35.91
24160;BME280;62385;41.594;23.808;2023-02-12T13:28:59;96277.09;;;7.91;37.09
24160;BME280;62385;41.594;23.808;2023-02-12T13:31:29;96287.53;;;8.32;35.85
24160;BME280;62385;41.594;23.808;2023-02-12T13:34:01;96291.91;;;8.03;36.18
24160;BME280;62385;41.594;23.808;2023-02-12T13:36:26;96288.72;;;8.28;36.18
24160;BME280;62385;41.594;23.808;2023-02-12T13:41:26;96292.16;;;8.40;35.85
24160;BME280;62385;41.594;23.808;2023-02-12T13:44:13;96289.22;;;8.62;35.59
24160;BME280;62385;41.594;23.808;2023-02-12T13:46:53;96293.25;;;8.38;36.64
24160;BME280;62385;41.594;23.808;2023-02-12T13:49:40;96299.69;;;8.64;36.90
24160;BME280;62385;41.594;23.808;2023-02-12T14:01:07;96299.53;;;8.75;36.07
24160;BME280;62385;41.594;23.808;2023-02-12T14:03:36;96300.50;;;8.93;35.11
24160;BME280;62385;41.594;23.808;2023-02-12T14:08:44;96320.59;;;8.86;35.89
24160;BME280;62385;41.594;23.808;2023-02-12T14:11:16;96315.56;;;8.83;36.26
24160;BME280;62385;41.594;23.808;2023-02-12T14:14:08;96320.72;;;8.56;35.55
24160;BME280;62385;41.594;23.808;2023-02-12T14:22:13;96326.16;;;8.64;35.89
24160;BME280;62385;41.594;23.808;2023-02-12T14:24:50;96334.47;;;8.50;36.12
24160;BME280;62385;41.594;23.808;2023-02-12T14:27:18;96334.31;;;8.42;36.58
24160;BME280;62385;41.594;23.808;2023-02-12T14:32:56;96335.88;;;8.54;36.32
24160;BME280;62385;41.594;23.808;2023-02-12T14:46:55;96343.44;;;8.18;38.14
24160;BME280;62385;41.594;23.808;2023-02-12T14:54:33;96354.72;;;7.80;38.74
24160;BME280;62385;41.594;23.808;2023-02-12T14:57:07;96347.34;;;7.84;38.22
24160;BME280;62385;41.594;23.808;2023-02-12T14:59:38;96349.56;;;7.79;38.53
24160;BME280;62385;41.594;23.808;2023-02-12T15:02:10;96361.00;;;7.59;39.54
24160;BME280;62385;41.594;23.808;2023-02-12T15:04:40;96366.91;;;7.72;38.54
24160;BME280;62385;41.594;23.808;2023-02-12T15:07:13;96373.44;;;7.68;38.82
24160;BME280;62385;41.594;23.808;2023-02-12T15:10:03;96372.19;;;7.72;38.32
24160;BME280;62385;41.594;23.808;2023-02-12T15:15:33;96393.25;;;7.32;40.16
24160;BME280;62385;41.594;23.808;2023-02-12T15:18:10;96390.47;;;7.33;39.66
24160;BME280;62385;41.594;23.808;2023-02-12T15:20:44;96400.06;;;7.14;40.30
24160;BME280;62385;41.594;23.808;2023-02-12T15:23:39;96408.13;;;7.12;40.10
24160;BME280;62385;41.594;23.808;2023-02-12T15:26:12;96414.06;;;6.93;41.45
24160;BME280;62385;41.594;23.808;2023-02-12T15:28:39;96433.72;;;6.46;42.68
24160;BME280;62385;41.594;23.808;2023-02-12T15:31:07;96441.00;;;5.54;44.06
24160;BME280;62385;41.594;23.808;2023-02-12T15:33:39;96432.00;;;5.45;45.54
24160;BME280;62385;41.594;23.808;2023-02-12T15:36:08;96436.16;;;6.38;43.33
24160;BME280;62385;41.594;23.808;2023-02-12T15:38:37;96444.06;;;6.38;42.53
24160;BME280;62385;41.594;23.808;2023-02-12T15:41:04;96448.03;;;6.11;44.18
24160;BME280;62385;41.594;23.808;2023-02-12T15:43:33;96457.50;;;5.10;46.10
24160;BME280;62385;41.594;23.808;2023-02-12T15:46:01;96456.72;;;5.21;46.16
24160;BME280;62385;41.594;23.808;2023-02-12T15:48:35;96456.31;;;5.14;46.07
24160;BME280;62385;41.594;23.808;2023-02-12T15:51:09;96473.66;;;4.45;48.20
24160;BME280;62385;41.594;23.808;2023-02-12T15:53:40;96480.13;;;4.29;48.20